createdAt,value
2017-04-10T00:02:10.105Z,13.8
2017-04-10T00:12:20.083Z,13.4
2017-04-10T00:22:30.110Z,13.1
2017-04-10T00:32:40.124Z,12.8
2017-04-10T00:42:50.250Z,12.3
2017-04-10T00:53:00.426Z,12
2017-04-10T01:03:10.564Z,11.8
2017-04-10T01:13:20.786Z,11.6
2017-04-10T01:23:31.084Z,11.4
2017-04-10T01:33:41.453Z,11.7
2017-04-10T01:43:51.792Z,11.5
2017-04-10T01:54:02.138Z,11.4
2017-04-10T02:04:12.503Z,11.2
2017-04-10T02:14:22.889Z,10.9
2017-04-10T02:24:33.263Z,10.9
2017-04-10T02:34:43.656Z,10.7
2017-04-10T02:44:54.085Z,10.5
2017-04-10T02:55:04.487Z,10.4
2017-04-10T03:05:14.923Z,11
2017-04-10T03:15:25.380Z,11.1
2017-04-10T03:25:35.860Z,11.3
2017-04-10T03:35:46.285Z,11.2
2017-04-10T03:45:56.708Z,11.1
2017-04-10T03:56:07.129Z,11.1
2017-04-10T04:06:17.571Z,11.1
2017-04-10T04:16:28.054Z,11.1
2017-04-10T04:26:38.480Z,11.1
2017-04-10T04:36:48.942Z,11.1
2017-04-10T04:46:59.372Z,11.2
2017-04-10T04:57:09.800Z,11.5
2017-04-10T05:07:20.150Z,11.4
2017-04-10T05:17:30.398Z,11.2
2017-04-10T05:27:40.598Z,11.1
2017-04-10T05:37:50.718Z,10.8
2017-04-10T05:48:00.836Z,10.6
2017-04-10T05:58:10.959Z,10.5
2017-04-10T06:08:21.022Z,10.6
2017-04-10T06:18:31.055Z,10.5
2017-04-10T06:28:41.139Z,10.4
2017-04-10T06:38:51.309Z,10.4
2017-04-10T06:49:01.423Z,10.4
2017-04-10T06:59:11.567Z,10.4
2017-04-10T07:09:21.709Z,10.7
2017-04-10T07:19:31.806Z,10.5
2017-04-10T07:29:41.906Z,10.7
2017-04-10T07:39:51.932Z,10.6
2017-04-10T07:50:01.936Z,10.6
2017-04-10T08:00:11.808Z,10.9
2017-04-10T08:10:21.604Z,10.8
2017-04-10T08:20:31.305Z,11
2017-04-10T08:30:40.946Z,11
2017-04-10T08:40:50.695Z,10.7
2017-04-10T08:51:00.582Z,10.6
2017-04-10T09:01:10.437Z,10.8
2017-04-10T09:11:20.276Z,10.7
2017-04-10T09:21:30.080Z,10.7
2017-04-10T09:31:39.961Z,10.7
2017-04-10T09:41:49.911Z,10.4
2017-04-10T09:51:59.938Z,10.5
2017-04-10T10:02:09.771Z,10.5
2017-04-10T10:12:19.435Z,10.7
2017-04-10T10:22:29.031Z,10.5
2017-04-10T10:32:38.748Z,10.9
2017-04-10T10:42:48.370Z,10.7
2017-04-10T10:52:57.958Z,10.6
2017-04-10T11:03:07.609Z,10.3
2017-04-10T11:13:17.244Z,10.1
2017-04-10T11:23:26.932Z,9.9
2017-04-10T11:33:36.468Z,10.4
2017-04-10T11:43:45.935Z,10.8
2017-04-10T11:53:55.123Z,11.1
2017-04-10T12:04:04.060Z,11.9
2017-04-10T12:14:13.148Z,11.4
2017-04-10T12:24:22.487Z,11.1
2017-04-10T12:34:31.968Z,11.4
2017-04-10T12:44:41.401Z,11.5
2017-04-10T12:54:50.755Z,12.3
2017-04-10T13:04:59.817Z,12.2
2017-04-10T13:15:08.848Z,11.6
2017-04-10T13:25:18.078Z,11.6
2017-04-10T13:35:27.430Z,11.8
2017-04-10T13:45:36.766Z,11.7
2017-04-10T13:55:45.960Z,12.6
2017-04-10T14:05:54.954Z,11.6
2017-04-10T14:16:04.140Z,11.8
2017-04-10T14:26:13.399Z,11.5
2017-04-10T14:36:22.693Z,11.8
2017-04-10T14:46:31.880Z,11.3
2017-04-10T14:56:41.101Z,12.1
2017-04-10T15:06:50.168Z,12.1
2017-04-10T15:16:59.116Z,11.8
2017-04-10T15:27:08.471Z,11.4
2017-04-10T15:37:18.056Z,11.7
2017-04-10T15:47:27.737Z,11.4
2017-04-10T15:57:37.520Z,11.4
2017-04-10T16:07:47.365Z,11.4
2017-04-10T16:17:57.127Z,11.4
2017-04-10T16:28:07.061Z,11.2
2017-04-10T16:38:17.047Z,11.1
2017-04-10T16:48:26.967Z,11.1
2017-04-10T16:58:36.974Z,10.9
2017-04-10T17:08:47.030Z,10.8
2017-04-10T17:18:57.153Z,10.7
2017-04-10T17:29:07.336Z,10.7
2017-04-10T17:39:17.544Z,10.4
2017-04-10T17:49:27.812Z,10.3
2017-04-10T17:59:38.168Z,10.1
2017-04-10T18:09:48.605Z,10.2
2017-04-10T18:19:59.062Z,9.9
2017-04-10T18:30:09.585Z,9.7
2017-04-10T18:40:20.165Z,9.5
2017-04-10T18:50:30.818Z,9.3
2017-04-10T19:00:41.559Z,9.3
2017-04-10T19:10:52.314Z,9.1
2017-04-10T19:21:03.095Z,9
2017-04-10T19:31:13.900Z,8.9
2017-04-10T19:41:24.697Z,8.8
2017-04-10T19:51:35.525Z,8.5
2017-04-10T20:01:46.393Z,8.5
2017-04-10T20:11:57.259Z,8.3
2017-04-10T20:22:08.117Z,8.3
2017-04-10T20:32:19.025Z,8.2
2017-04-10T20:42:29.938Z,8
2017-04-10T20:52:40.840Z,7.9
2017-04-10T21:02:51.774Z,7.7
2017-04-10T21:13:02.713Z,7.6
2017-04-10T21:23:13.656Z,7.6
2017-04-10T21:33:24.663Z,7.3
2017-04-10T21:43:35.736Z,7.2
2017-04-10T21:53:46.801Z,6.9
2017-04-10T22:03:57.900Z,7
2017-04-10T22:14:09.012Z,6.6
2017-04-10T22:24:20.199Z,6.8
2017-04-10T22:34:31.373Z,6.6
2017-04-10T22:44:42.599Z,6.4
2017-04-10T22:54:53.837Z,6.2
2017-04-10T23:05:05.140Z,6.1
2017-04-10T23:15:16.393Z,6
2017-04-10T23:25:27.680Z,5.9
2017-04-10T23:35:38.991Z,5.8
2017-04-10T23:45:50.334Z,5.7
2017-04-10T23:56:01.725Z,5.7
